Clermont, Indiana
Current Conditions -  °F | °C
As of 5:53 AM on Thursday 18 Dec 2014 (Local Time) from KEYE Reporting Station
Overcast Overcast  
Wind Chill: 16°   Ceiling: 1600
Heat Index: 24°   Visibility: 10mi
Dew Point: 18°   Wind: 7mph
Humidity: 77%   Direction: 60°ENE
Pressure: 30.23"   Gusts: NA
Location:  39.7872°N, 86.3386°W
Report Text: KEYE 181053Z AUTO 06006KT 10SM OVC016 M04/M08 A3023 RMK AO2 SLP250 T10441078
Loading
Personal Weather Stations






























Interactive Weather Map New forecast layout! Learn more

10-Day Weather Forecast

Advertisements
Track Severe Weather on mobile